sensor_id;sensor_type;location;lat;lon;timestamp;P1;durP1;ratioP1;P2;durP2;ratioP2
71343;SDS011;59146;43.850;25.948;2023-09-19T00:00:19;9.27;;;5.43;;
71343;SDS011;59146;43.850;25.948;2023-09-19T00:02:55;11.60;;;5.10;;
71343;SDS011;59146;43.850;25.948;2023-09-19T00:05:24;10.43;;;5.68;;
71343;SDS011;59146;43.850;25.948;2023-09-19T00:07:53;9.05;;;6.45;;
71343;SDS011;59146;43.850;25.948;2023-09-19T00:10:19;12.60;;;5.65;;
71343;SDS011;59146;43.850;25.948;2023-09-19T00:12:49;11.82;;;5.55;;
71343;SDS011;59146;43.850;25.948;2023-09-19T00:15:17;9.30;;;5.70;;
71343;SDS011;59146;43.850;25.948;2023-09-19T00:17:43;7.80;;;5.75;;
71343;SDS011;59146;43.850;25.948;2023-09-19T00:20:09;8.25;;;5.65;;
71343;SDS011;59146;43.850;25.948;2023-09-19T00:22:41;7.10;;;5.60;;
71343;SDS011;59146;43.850;25.948;2023-09-19T00:25:10;5.65;;;5.13;;
71343;SDS011;59146;43.850;25.948;2023-09-19T00:27:37;7.45;;;5.55;;
71343;SDS011;59146;43.850;25.948;2023-09-19T00:30:10;8.98;;;5.50;;
71343;SDS011;59146;43.850;25.948;2023-09-19T00:32:41;8.15;;;5.70;;
71343;SDS011;59146;43.850;25.948;2023-09-19T00:35:07;6.47;;;5.60;;
71343;SDS011;59146;43.850;25.948;2023-09-19T00:37:36;9.68;;;6.40;;
71343;SDS011;59146;43.850;25.948;2023-09-19T00:40:03;14.90;;;5.80;;
71343;SDS011;59146;43.850;25.948;2023-09-19T00:42:30;10.63;;;5.85;;
71343;SDS011;59146;43.850;25.948;2023-09-19T00:44:56;7.65;;;6.53;;
71343;SDS011;59146;43.850;25.948;2023-09-19T00:47:22;11.95;;;6.55;;
71343;SDS011;59146;43.850;25.948;2023-09-19T00:49:47;9.05;;;5.75;;
71343;SDS011;59146;43.850;25.948;2023-09-19T00:52:17;10.77;;;6.53;;
71343;SDS011;59146;43.850;25.948;2023-09-19T00:54:47;12.30;;;7.15;;
71343;SDS011;59146;43.850;25.948;2023-09-19T00:57:13;7.57;;;6.50;;
71343;SDS011;59146;43.850;25.948;2023-09-19T00:59:44;12.70;;;6.97;;
71343;SDS011;59146;43.850;25.948;2023-09-19T01:02:09;12.27;;;6.80;;
71343;SDS011;59146;43.850;25.948;2023-09-19T01:04:36;9.02;;;6.18;;
71343;SDS011;59146;43.850;25.948;2023-09-19T01:07:02;7.72;;;6.15;;
71343;SDS011;59146;43.850;25.948;2023-09-19T01:09:28;11.25;;;7.13;;
71343;SDS011;59146;43.850;25.948;2023-09-19T01:11:56;13.15;;;7.22;;
71343;SDS011;59146;43.850;25.948;2023-09-19T01:14:31;9.43;;;6.40;;
71343;SDS011;59146;43.850;25.948;2023-09-19T01:17:04;10.63;;;7.32;;
71343;SDS011;59146;43.850;25.948;2023-09-19T01:22:16;10.05;;;6.72;;
71343;SDS011;59146;43.850;25.948;2023-09-19T01:30:44;11.85;;;7.68;;
71343;SDS011;59146;43.850;25.948;2023-09-19T01:33:12;12.73;;;7.30;;
71343;SDS011;59146;43.850;25.948;2023-09-19T01:35:39;10.82;;;6.80;;
71343;SDS011;59146;43.850;25.948;2023-09-19T01:38:06;19.40;;;8.32;;
71343;SDS011;59146;43.850;25.948;2023-09-19T01:40:43;8.98;;;7.10;;
71343;SDS011;59146;43.850;25.948;2023-09-19T01:43:21;13.48;;;6.90;;
71343;SDS011;59146;43.850;25.948;2023-09-19T01:46:14;11.20;;;7.15;;
71343;SDS011;59146;43.850;25.948;2023-09-19T01:48:54;11.82;;;7.28;;
71343;SDS011;59146;43.850;25.948;2023-09-19T01:51:36;10.18;;;6.93;;
71343;SDS011;59146;43.850;25.948;2023-09-19T01:54:09;11.35;;;7.22;;
71343;SDS011;59146;43.850;25.948;2023-09-19T01:56:42;14.60;;;7.78;;
71343;SDS011;59146;43.850;25.948;2023-09-19T01:59:16;12.65;;;7.03;;
71343;SDS011;59146;43.850;25.948;2023-09-19T02:01:47;8.35;;;7.43;;
71343;SDS011;59146;43.850;25.948;2023-09-19T02:04:14;11.27;;;8.05;;
71343;SDS011;59146;43.850;25.948;2023-09-19T02:06:43;11.30;;;6.57;;
71343;SDS011;59146;43.850;25.948;2023-09-19T02:09:08;15.82;;;8.70;;
71343;SDS011;59146;43.850;25.948;2023-09-19T02:11:36;16.15;;;9.40;;
71343;SDS011;59146;43.850;25.948;2023-09-19T02:14:02;13.48;;;9.38;;
71343;SDS011;59146;43.850;25.948;2023-09-19T02:16:28;14.82;;;10.13;;
71343;SDS011;59146;43.850;25.948;2023-09-19T02:18:53;14.20;;;9.65;;
71343;SDS011;59146;43.850;25.948;2023-09-19T02:21:19;13.75;;;9.90;;
71343;SDS011;59146;43.850;25.948;2023-09-19T02:23:46;55.08;;;13.25;;
71343;SDS011;59146;43.850;25.948;2023-09-19T02:26:12;19.25;;;9.80;;
71343;SDS011;59146;43.850;25.948;2023-09-19T02:28:38;11.45;;;9.65;;
71343;SDS011;59146;43.850;25.948;2023-09-19T02:31:04;10.88;;;8.63;;
71343;SDS011;59146;43.850;25.948;2023-09-19T02:33:32;16.00;;;8.88;;
71343;SDS011;59146;43.850;25.948;2023-09-19T02:35:58;14.32;;;7.80;;
71343;SDS011;59146;43.850;25.948;2023-09-19T02:38:25;14.20;;;7.65;;
71343;SDS011;59146;43.850;25.948;2023-09-19T02:40:51;11.15;;;8.73;;
71343;SDS011;59146;43.850;25.948;2023-09-19T02:43:17;12.52;;;8.25;;
71343;SDS011;59146;43.850;25.948;2023-09-19T02:45:44;13.82;;;8.00;;
71343;SDS011;59146;43.850;25.948;2023-09-19T02:48:11;14.77;;;9.05;;
71343;SDS011;59146;43.850;25.948;2023-09-19T02:50:37;12.43;;;9.05;;
71343;SDS011;59146;43.850;25.948;2023-09-19T02:53:04;16.50;;;10.20;;
71343;SDS011;59146;43.850;25.948;2023-09-19T02:55:29;12.80;;;9.90;;
71343;SDS011;59146;43.850;25.948;2023-09-19T02:57:55;18.20;;;11.82;;
71343;SDS011;59146;43.850;25.948;2023-09-19T03:00:21;12.98;;;11.50;;
71343;SDS011;59146;43.850;25.948;2023-09-19T03:02:48;17.67;;;12.35;;
71343;SDS011;59146;43.850;25.948;2023-09-19T03:05:14;15.88;;;11.93;;
71343;SDS011;59146;43.850;25.948;2023-09-19T03:07:40;17.67;;;11.73;;
71343;SDS011;59146;43.850;25.948;2023-09-19T03:10:08;17.83;;;12.23;;
71343;SDS011;59146;43.850;25.948;2023-09-19T03:12:34;16.55;;;12.63;;
71343;SDS011;59146;43.850;25.948;2023-09-19T03:15:00;21.55;;;14.27;;
71343;SDS011;59146;43.850;25.948;2023-09-19T03:17:25;20.80;;;13.88;;
71343;SDS011;59146;43.850;25.948;2023-09-19T03:19:51;22.27;;;15.35;;
71343;SDS011;59146;43.850;25.948;2023-09-19T03:22:16;19.92;;;13.00;;
71343;SDS011;59146;43.850;25.948;2023-09-19T03:24:43;14.80;;;11.48;;
71343;SDS011;59146;43.850;25.948;2023-09-19T03:27:11;20.92;;;13.98;;
71343;SDS011;59146;43.850;25.948;2023-09-19T03:29:39;18.95;;;13.40;;
71343;SDS011;59146;43.850;25.948;2023-09-19T03:32:05;19.25;;;13.10;;
71343;SDS011;59146;43.850;25.948;2023-09-19T03:34:30;31.55;;;13.30;;
71343;SDS011;59146;43.850;25.948;2023-09-19T03:36:56;17.38;;;12.85;;
71343;SDS011;59146;43.850;25.948;2023-09-19T03:39:21;14.43;;;11.05;;
71343;SDS011;59146;43.850;25.948;2023-09-19T03:41:47;16.60;;;11.38;;
71343;SDS011;59146;43.850;25.948;2023-09-19T03:44:13;16.63;;;10.43;;
71343;SDS011;59146;43.850;25.948;2023-09-19T03:46:38;15.48;;;11.07;;
71343;SDS011;59146;43.850;25.948;2023-09-19T03:49:04;16.20;;;11.13;;
71343;SDS011;59146;43.850;25.948;2023-09-19T03:51:29;17.35;;;10.65;;
71343;SDS011;59146;43.850;25.948;2023-09-19T03:53:55;16.77;;;11.80;;
71343;SDS011;59146;43.850;25.948;2023-09-19T03:56:21;20.83;;;12.07;;
71343;SDS011;59146;43.850;25.948;2023-09-19T03:58:46;18.92;;;11.13;;
71343;SDS011;59146;43.850;25.948;2023-09-19T04:01:12;20.50;;;11.73;;
71343;SDS011;59146;43.850;25.948;2023-09-19T04:03:38;19.27;;;12.27;;
71343;SDS011;59146;43.850;25.948;2023-09-19T04:06:16;17.88;;;11.77;;
71343;SDS011;59146;43.850;25.948;2023-09-19T04:08:42;19.15;;;12.55;;
71343;SDS011;59146;43.850;25.948;2023-09-19T04:11:08;21.65;;;12.85;;
71343;SDS011;59146;43.850;25.948;2023-09-19T04:13:34;18.33;;;12.07;;
71343;SDS011;59146;43.850;25.948;2023-09-19T04:16:00;15.80;;;11.98;;
71343;SDS011;59146;43.850;25.948;2023-09-19T04:18:25;15.32;;;10.82;;
71343;SDS011;59146;43.850;25.948;2023-09-19T04:20:51;19.75;;;11.77;;
71343;SDS011;59146;43.850;25.948;2023-09-19T04:23:17;24.85;;;11.45;;
71343;SDS011;59146;43.850;25.948;2023-09-19T04:25:45;21.17;;;11.45;;
71343;SDS011;59146;43.850;25.948;2023-09-19T04:28:10;21.88;;;11.57;;
71343;SDS011;59146;43.850;25.948;2023-09-19T04:30:36;15.50;;;10.65;;
71343;SDS011;59146;43.850;25.948;2023-09-19T04:33:02;17.33;;;10.75;;
71343;SDS011;59146;43.850;25.948;2023-09-19T04:35:28;20.58;;;11.95;;
71343;SDS011;59146;43.850;25.948;2023-09-19T04:37:56;16.63;;;10.00;;
71343;SDS011;59146;43.850;25.948;2023-09-19T04:40:22;19.80;;;10.27;;
71343;SDS011;59146;43.850;25.948;2023-09-19T04:42:53;18.50;;;10.30;;
71343;SDS011;59146;43.850;25.948;2023-09-19T04:45:22;15.07;;;9.98;;
71343;SDS011;59146;43.850;25.948;2023-09-19T04:47:48;17.48;;;10.07;;
71343;SDS011;59146;43.850;25.948;2023-09-19T04:50:13;16.48;;;10.18;;
71343;SDS011;59146;43.850;25.948;2023-09-19T04:52:39;17.65;;;9.98;;
71343;SDS011;59146;43.850;25.948;2023-09-19T04:55:14;13.63;;;9.45;;
71343;SDS011;59146;43.850;25.948;2023-09-19T04:57:46;19.02;;;10.20;;
71343;SDS011;59146;43.850;25.948;2023-09-19T05:00:13;23.17;;;10.13;;
71343;SDS011;59146;43.850;25.948;2023-09-19T05:02:40;19.02;;;9.35;;
71343;SDS011;59146;43.850;25.948;2023-09-19T05:05:10;19.60;;;10.20;;
71343;SDS011;59146;43.850;25.948;2023-09-19T05:07:37;15.77;;;9.30;;
71343;SDS011;59146;43.850;25.948;2023-09-19T05:10:04;25.77;;;9.55;;
71343;SDS011;59146;43.850;25.948;2023-09-19T05:12:32;21.13;;;9.07;;
71343;SDS011;59146;43.850;25.948;2023-09-19T05:14:59;14.95;;;8.80;;
71343;SDS011;59146;43.850;25.948;2023-09-19T05:17:26;18.00;;;9.40;;
71343;SDS011;59146;43.850;25.948;2023-09-19T05:19:52;18.08;;;9.88;;
71343;SDS011;59146;43.850;25.948;2023-09-19T05:22:17;19.90;;;8.85;;
71343;SDS011;59146;43.850;25.948;2023-09-19T05:24:43;13.40;;;9.20;;
71343;SDS011;59146;43.850;25.948;2023-09-19T05:27:13;21.63;;;10.93;;
71343;SDS011;59146;43.850;25.948;2023-09-19T05:29:41;15.20;;;9.52;;
71343;SDS011;59146;43.850;25.948;2023-09-19T05:32:07;20.38;;;9.43;;
71343;SDS011;59146;43.850;25.948;2023-09-19T05:34:33;25.13;;;9.52;;
71343;SDS011;59146;43.850;25.948;2023-09-19T05:36:58;22.27;;;11.55;;
71343;SDS011;59146;43.850;25.948;2023-09-19T05:39:24;26.95;;;9.80;;
71343;SDS011;59146;43.850;25.948;2023-09-19T05:41:49;17.38;;;8.98;;
71343;SDS011;59146;43.850;25.948;2023-09-19T05:44:14;18.60;;;8.88;;
71343;SDS011;59146;43.850;25.948;2023-09-19T05:46:40;25.52;;;10.45;;
71343;SDS011;59146;43.850;25.948;2023-09-19T05:49:05;18.08;;;9.95;;
71343;SDS011;59146;43.850;25.948;2023-09-19T05:51:31;20.73;;;10.93;;
71343;SDS011;59146;43.850;25.948;2023-09-19T05:53:56;27.40;;;10.50;;
71343;SDS011;59146;43.850;25.948;2023-09-19T05:56:22;26.08;;;11.00;;
71343;SDS011;59146;43.850;25.948;2023-09-19T05:58:47;27.83;;;11.73;;
71343;SDS011;59146;43.850;25.948;2023-09-19T06:01:14;18.70;;;10.18;;
71343;SDS011;59146;43.850;25.948;2023-09-19T06:03:40;24.77;;;10.52;;
71343;SDS011;59146;43.850;25.948;2023-09-19T06:06:05;24.35;;;12.20;;
71343;SDS011;59146;43.850;25.948;2023-09-19T06:08:31;30.23;;;12.90;;
71343;SDS011;59146;43.850;25.948;2023-09-19T06:10:58;25.73;;;12.55;;
71343;SDS011;59146;43.850;25.948;2023-09-19T06:13:24;28.98;;;12.18;;
71343;SDS011;59146;43.850;25.948;2023-09-19T06:15:51;16.67;;;8.45;;
71343;SDS011;59146;43.850;25.948;2023-09-19T06:18:17;10.70;;;8.20;;
71343;SDS011;59146;43.850;25.948;2023-09-19T06:20:47;13.10;;;7.57;;
71343;SDS011;59146;43.850;25.948;2023-09-19T06:23:14;11.70;;;7.45;;
71343;SDS011;59146;43.850;25.948;2023-09-19T06:25:40;17.42;;;8.85;;
71343;SDS011;59146;43.850;25.948;2023-09-19T06:28:06;10.75;;;8.07;;
71343;SDS011;59146;43.850;25.948;2023-09-19T06:30:33;14.15;;;7.60;;
71343;SDS011;59146;43.850;25.948;2023-09-19T06:32:59;14.95;;;7.72;;
71343;SDS011;59146;43.850;25.948;2023-09-19T06:35:25;14.70;;;8.23;;
71343;SDS011;59146;43.850;25.948;2023-09-19T06:37:52;21.70;;;9.02;;
71343;SDS011;59146;43.850;25.948;2023-09-19T06:40:17;19.90;;;9.50;;
71343;SDS011;59146;43.850;25.948;2023-09-19T06:42:45;14.10;;;8.48;;
71343;SDS011;59146;43.850;25.948;2023-09-19T06:45:16;14.93;;;8.93;;
71343;SDS011;59146;43.850;25.948;2023-09-19T06:47:48;18.23;;;8.70;;
71343;SDS011;59146;43.850;25.948;2023-09-19T06:50:22;17.10;;;8.35;;
71343;SDS011;59146;43.850;25.948;2023-09-19T06:52:48;19.23;;;7.90;;
71343;SDS011;59146;43.850;25.948;2023-09-19T06:55:15;21.45;;;8.68;;
71343;SDS011;59146;43.850;25.948;2023-09-19T06:57:42;24.00;;;9.30;;
71343;SDS011;59146;43.850;25.948;2023-09-19T07:00:09;20.00;;;7.60;;
71343;SDS011;59146;43.850;25.948;2023-09-19T07:02:59;17.27;;;8.63;;
71343;SDS011;59146;43.850;25.948;2023-09-19T07:05:28;18.85;;;8.00;;
71343;SDS011;59146;43.850;25.948;2023-09-19T07:07:56;29.05;;;7.70;;
71343;SDS011;59146;43.850;25.948;2023-09-19T07:10:24;21.42;;;8.02;;
71343;SDS011;59146;43.850;25.948;2023-09-19T07:13:14;17.58;;;7.30;;
71343;SDS011;59146;43.850;25.948;2023-09-19T07:15:42;16.08;;;7.90;;
71343;SDS011;59146;43.850;25.948;2023-09-19T07:18:12;16.58;;;8.05;;
71343;SDS011;59146;43.850;25.948;2023-09-19T07:20:41;17.23;;;7.05;;
71343;SDS011;59146;43.850;25.948;2023-09-19T07:25:47;14.75;;;6.25;;
71343;SDS011;59146;43.850;25.948;2023-09-19T07:28:13;16.25;;;7.03;;
71343;SDS011;59146;43.850;25.948;2023-09-19T07:30:39;12.93;;;6.57;;
71343;SDS011;59146;43.850;25.948;2023-09-19T07:33:06;15.90;;;8.15;;
71343;SDS011;59146;43.850;25.948;2023-09-19T07:35:36;15.80;;;6.67;;
71343;SDS011;59146;43.850;25.948;2023-09-19T07:38:02;15.80;;;6.63;;
71343;SDS011;59146;43.850;25.948;2023-09-19T07:40:28;13.13;;;7.40;;
71343;SDS011;59146;43.850;25.948;2023-09-19T07:42:57;11.00;;;6.97;;
71343;SDS011;59146;43.850;25.948;2023-09-19T07:45:26;14.63;;;6.57;;
71343;SDS011;59146;43.850;25.948;2023-09-19T07:47:55;12.00;;;6.45;;
71343;SDS011;59146;43.850;25.948;2023-09-19T07:50:20;12.73;;;6.20;;
71343;SDS011;59146;43.850;25.948;2023-09-19T07:52:46;10.07;;;6.63;;
71343;SDS011;59146;43.850;25.948;2023-09-19T07:55:13;11.88;;;5.90;;
71343;SDS011;59146;43.850;25.948;2023-09-19T07:57:41;11.70;;;6.43;;
71343;SDS011;59146;43.850;25.948;2023-09-19T08:00:07;17.20;;;6.85;;
71343;SDS011;59146;43.850;25.948;2023-09-19T08:02:35;18.70;;;7.22;;
71343;SDS011;59146;43.850;25.948;2023-09-19T08:05:03;12.00;;;6.05;;
71343;SDS011;59146;43.850;25.948;2023-09-19T08:07:31;9.13;;;5.15;;
71343;SDS011;59146;43.850;25.948;2023-09-19T08:10:01;12.90;;;5.63;;
71343;SDS011;59146;43.850;25.948;2023-09-19T08:12:27;12.63;;;5.78;;
71343;SDS011;59146;43.850;25.948;2023-09-19T08:14:53;9.07;;;5.45;;
71343;SDS011;59146;43.850;25.948;2023-09-19T08:17:21;15.25;;;6.50;;
71343;SDS011;59146;43.850;25.948;2023-09-19T08:19:48;10.32;;;5.47;;
71343;SDS011;59146;43.850;25.948;2023-09-19T08:22:14;13.05;;;5.38;;
71343;SDS011;59146;43.850;25.948;2023-09-19T08:24:42;10.15;;;5.22;;
71343;SDS011;59146;43.850;25.948;2023-09-19T08:27:08;12.95;;;6.00;;
71343;SDS011;59146;43.850;25.948;2023-09-19T08:29:35;11.80;;;4.70;;
71343;SDS011;59146;43.850;25.948;2023-09-19T08:32:01;13.70;;;4.47;;
71343;SDS011;59146;43.850;25.948;2023-09-19T08:34:26;7.50;;;3.75;;
71343;SDS011;59146;43.850;25.948;2023-09-19T08:36:52;6.28;;;4.07;;
71343;SDS011;59146;43.850;25.948;2023-09-19T08:39:22;5.07;;;3.53;;
71343;SDS011;59146;43.850;25.948;2023-09-19T08:41:48;7.82;;;4.20;;
71343;SDS011;59146;43.850;25.948;2023-09-19T08:44:13;8.40;;;5.50;;
71343;SDS011;59146;43.850;25.948;2023-09-19T08:46:40;5.75;;;4.43;;
71343;SDS011;59146;43.850;25.948;2023-09-19T08:52:05;8.23;;;5.57;;
71343;SDS011;59146;43.850;25.948;2023-09-19T08:54:41;9.80;;;4.07;;
71343;SDS011;59146;43.850;25.948;2023-09-19T08:57:08;4.95;;;3.33;;
71343;SDS011;59146;43.850;25.948;2023-09-19T08:59:39;8.55;;;6.47;;
71343;SDS011;59146;43.850;25.948;2023-09-19T09:04:38;9.77;;;2.80;;
71343;SDS011;59146;43.850;25.948;2023-09-19T09:07:09;12.43;;;2.75;;
71343;SDS011;59146;43.850;25.948;2023-09-19T09:09:36;3.70;;;2.58;;
71343;SDS011;59146;43.850;25.948;2023-09-19T09:12:02;6.65;;;3.05;;
71343;SDS011;59146;43.850;25.948;2023-09-19T09:14:30;4.60;;;2.55;;
71343;SDS011;59146;43.850;25.948;2023-09-19T09:16:55;7.03;;;2.80;;
71343;SDS011;59146;43.850;25.948;2023-09-19T09:19:24;3.92;;;2.60;;
71343;SDS011;59146;43.850;25.948;2023-09-19T09:21:50;7.50;;;3.22;;
71343;SDS011;59146;43.850;25.948;2023-09-19T09:24:26;5.30;;;3.10;;
71343;SDS011;59146;43.850;25.948;2023-09-19T09:26:55;3.78;;;3.08;;
71343;SDS011;59146;43.850;25.948;2023-09-19T09:32:27;6.68;;;2.70;;
71343;SDS011;59146;43.850;25.948;2023-09-19T09:34:57;12.30;;;2.92;;
71343;SDS011;59146;43.850;25.948;2023-09-19T09:37:25;8.02;;;3.45;;
71343;SDS011;59146;43.850;25.948;2023-09-19T09:39:56;6.43;;;5.03;;
71343;SDS011;59146;43.850;25.948;2023-09-19T09:42:36;5.85;;;4.07;;
71343;SDS011;59146;43.850;25.948;2023-09-19T09:45:17;4.55;;;3.00;;
71343;SDS011;59146;43.850;25.948;2023-09-19T09:47:59;4.93;;;2.60;;
71343;SDS011;59146;43.850;25.948;2023-09-19T09:50:32;7.63;;;4.68;;
71343;SDS011;59146;43.850;25.948;2023-09-19T09:58:34;9.32;;;3.63;;
71343;SDS011;59146;43.850;25.948;2023-09-19T10:01:02;4.47;;;3.10;;
71343;SDS011;59146;43.850;25.948;2023-09-19T10:03:40;6.40;;;3.20;;
71343;SDS011;59146;43.850;25.948;2023-09-19T10:06:10;6.13;;;2.72;;
71343;SDS011;59146;43.850;25.948;2023-09-19T10:09:04;9.80;;;3.92;;
71343;SDS011;59146;43.850;25.948;2023-09-19T10:11:39;11.73;;;5.13;;
71343;SDS011;59146;43.850;25.948;2023-09-19T10:14:08;6.85;;;2.78;;
71343;SDS011;59146;43.850;25.948;2023-09-19T10:16:38;7.00;;;2.90;;
71343;SDS011;59146;43.850;25.948;2023-09-19T10:19:07;4.63;;;2.50;;
71343;SDS011;59146;43.850;25.948;2023-09-19T10:21:34;8.50;;;2.97;;
71343;SDS011;59146;43.850;25.948;2023-09-19T10:24:01;5.82;;;3.40;;
71343;SDS011;59146;43.850;25.948;2023-09-19T10:26:29;4.47;;;2.78;;
71343;SDS011;59146;43.850;25.948;2023-09-19T10:28:56;4.55;;;3.30;;
71343;SDS011;59146;43.850;25.948;2023-09-19T10:31:25;3.35;;;2.70;;
71343;SDS011;59146;43.850;25.948;2023-09-19T10:33:53;4.43;;;2.22;;
71343;SDS011;59146;43.850;25.948;2023-09-19T10:36:21;4.47;;;2.53;;
71343;SDS011;59146;43.850;25.948;2023-09-19T10:38:50;3.83;;;2.50;;
71343;SDS011;59146;43.850;25.948;2023-09-19T10:41:20;5.33;;;3.30;;
71343;SDS011;59146;43.850;25.948;2023-09-19T10:43:48;4.63;;;2.80;;
71343;SDS011;59146;43.850;25.948;2023-09-19T10:46:13;3.88;;;2.47;;
71343;SDS011;59146;43.850;25.948;2023-09-19T10:48:40;3.30;;;2.78;;
71343;SDS011;59146;43.850;25.948;2023-09-19T10:53:44;5.05;;;2.63;;
71343;SDS011;59146;43.850;25.948;2023-09-19T10:56:13;11.70;;;3.40;;
71343;SDS011;59146;43.850;25.948;2023-09-19T10:58:44;7.05;;;2.60;;
71343;SDS011;59146;43.850;25.948;2023-09-19T11:01:10;7.25;;;2.97;;
71343;SDS011;59146;43.850;25.948;2023-09-19T11:03:43;6.35;;;2.90;;
71343;SDS011;59146;43.850;25.948;2023-09-19T11:06:12;7.15;;;2.90;;
71343;SDS011;59146;43.850;25.948;2023-09-19T11:11:44;11.30;;;2.85;;
71343;SDS011;59146;43.850;25.948;2023-09-19T11:30:33;5.38;;;2.97;;
71343;SDS011;59146;43.850;25.948;2023-09-19T11:33:19;6.07;;;3.38;;
71343;SDS011;59146;43.850;25.948;2023-09-19T11:43:51;12.43;;;3.13;;
71343;SDS011;59146;43.850;25.948;2023-09-19T11:46:20;7.25;;;2.78;;
71343;SDS011;59146;43.850;25.948;2023-09-19T11:48:49;7.18;;;3.05;;
71343;SDS011;59146;43.850;25.948;2023-09-19T11:51:22;4.63;;;2.80;;
71343;SDS011;59146;43.850;25.948;2023-09-19T11:53:52;5.57;;;3.00;;
71343;SDS011;59146;43.850;25.948;2023-09-19T11:56:21;8.38;;;3.47;;
71343;SDS011;59146;43.850;25.948;2023-09-19T11:58:49;6.60;;;2.60;;
71343;SDS011;59146;43.850;25.948;2023-09-19T12:01:52;2.90;;;2.60;;
71343;SDS011;59146;43.850;25.948;2023-09-19T12:04:15;5.53;;;2.90;;
71343;SDS011;59146;43.850;25.948;2023-09-19T12:06:44;7.88;;;2.80;;
71343;SDS011;59146;43.850;25.948;2023-09-19T12:09:21;5.10;;;2.97;;
71343;SDS011;59146;43.850;25.948;2023-09-19T12:11:47;8.55;;;3.10;;
71343;SDS011;59146;43.850;25.948;2023-09-19T12:14:24;5.63;;;3.00;;
71343;SDS011;59146;43.850;25.948;2023-09-19T12:16:54;8.27;;;3.00;;
71343;SDS011;59146;43.850;25.948;2023-09-19T12:19:21;5.32;;;3.15;;
71343;SDS011;59146;43.850;25.948;2023-09-19T12:22:02;4.93;;;2.80;;
71343;SDS011;59146;43.850;25.948;2023-09-19T12:24:32;5.25;;;2.60;;
71343;SDS011;59146;43.850;25.948;2023-09-19T12:27:01;6.03;;;2.92;;
71343;SDS011;59146;43.850;25.948;2023-09-19T12:29:32;5.15;;;2.70;;
71343;SDS011;59146;43.850;25.948;2023-09-19T12:32:06;6.82;;;2.90;;
71343;SDS011;59146;43.850;25.948;2023-09-19T12:34:32;6.88;;;3.22;;
71343;SDS011;59146;43.850;25.948;2023-09-19T12:37:07;6.93;;;3.03;;
71343;SDS011;59146;43.850;25.948;2023-09-19T12:42:07;4.05;;;2.80;;
71343;SDS011;59146;43.850;25.948;2023-09-19T12:44:36;5.40;;;2.55;;
71343;SDS011;59146;43.850;25.948;2023-09-19T12:47:09;5.15;;;2.92;;
71343;SDS011;59146;43.850;25.948;2023-09-19T12:49:36;2.80;;;2.38;;
71343;SDS011;59146;43.850;25.948;2023-09-19T12:52:01;4.95;;;2.80;;
71343;SDS011;59146;43.850;25.948;2023-09-19T12:54:39;6.22;;;2.85;;
71343;SDS011;59146;43.850;25.948;2023-09-19T12:57:05;6.78;;;3.00;;
71343;SDS011;59146;43.850;25.948;2023-09-19T12:59:30;8.77;;;2.90;;
71343;SDS011;59146;43.850;25.948;2023-09-19T13:02:03;3.67;;;2.88;;
71343;SDS011;59146;43.850;25.948;2023-09-19T13:04:31;5.20;;;2.85;;
71343;SDS011;59146;43.850;25.948;2023-09-19T13:06:58;9.25;;;2.85;;
71343;SDS011;59146;43.850;25.948;2023-09-19T13:09:27;6.88;;;2.92;;
71343;SDS011;59146;43.850;25.948;2023-09-19T13:12:03;5.25;;;2.95;;
71343;SDS011;59146;43.850;25.948;2023-09-19T13:14:32;3.25;;;2.40;;
71343;SDS011;59146;43.850;25.948;2023-09-19T13:17:06;3.05;;;2.60;;
71343;SDS011;59146;43.850;25.948;2023-09-19T13:19:45;5.85;;;3.05;;
71343;SDS011;59146;43.850;25.948;2023-09-19T13:25:23;12.93;;;5.35;;
71343;SDS011;59146;43.850;25.948;2023-09-19T13:27:52;16.48;;;5.13;;
71343;SDS011;59146;43.850;25.948;2023-09-19T13:30:21;15.80;;;9.57;;
71343;SDS011;59146;43.850;25.948;2023-09-19T13:32:48;15.18;;;5.00;;
71343;SDS011;59146;43.850;25.948;2023-09-19T13:35:14;12.57;;;7.88;;
71343;SDS011;59146;43.850;25.948;2023-09-19T13:37:40;9.57;;;5.20;;
71343;SDS011;59146;43.850;25.948;2023-09-19T13:40:09;5.43;;;3.35;;
71343;SDS011;59146;43.850;25.948;2023-09-19T13:42:39;8.63;;;2.85;;
71343;SDS011;59146;43.850;25.948;2023-09-19T13:45:07;7.82;;;3.40;;
71343;SDS011;59146;43.850;25.948;2023-09-19T13:47:35;9.15;;;2.92;;
71343;SDS011;59146;43.850;25.948;2023-09-19T13:50:03;6.68;;;2.63;;
71343;SDS011;59146;43.850;25.948;2023-09-19T13:52:30;9.60;;;2.90;;
71343;SDS011;59146;43.850;25.948;2023-09-19T13:54:57;8.45;;;2.97;;
71343;SDS011;59146;43.850;25.948;2023-09-19T13:57:25;7.72;;;2.80;;
71343;SDS011;59146;43.850;25.948;2023-09-19T13:59:52;4.60;;;2.57;;
71343;SDS011;59146;43.850;25.948;2023-09-19T14:02:19;8.10;;;3.42;;
71343;SDS011;59146;43.850;25.948;2023-09-19T14:04:48;7.70;;;2.90;;
71343;SDS011;59146;43.850;25.948;2023-09-19T14:07:14;4.35;;;2.70;;
71343;SDS011;59146;43.850;25.948;2023-09-19T14:09:40;4.13;;;2.67;;
71343;SDS011;59146;43.850;25.948;2023-09-19T14:12:06;4.20;;;2.75;;
71343;SDS011;59146;43.850;25.948;2023-09-19T14:14:31;5.10;;;2.60;;
71343;SDS011;59146;43.850;25.948;2023-09-19T14:16:57;4.47;;;2.75;;
71343;SDS011;59146;43.850;25.948;2023-09-19T14:19:25;4.25;;;2.22;;
71343;SDS011;59146;43.850;25.948;2023-09-19T14:21:53;8.38;;;3.00;;
71343;SDS011;59146;43.850;25.948;2023-09-19T14:24:20;5.47;;;3.08;;
71343;SDS011;59146;43.850;25.948;2023-09-19T14:26:47;7.10;;;2.83;;
71343;SDS011;59146;43.850;25.948;2023-09-19T14:29:12;8.82;;;2.90;;
71343;SDS011;59146;43.850;25.948;2023-09-19T14:31:38;9.23;;;2.67;;
71343;SDS011;59146;43.850;25.948;2023-09-19T14:34:05;5.68;;;2.90;;
71343;SDS011;59146;43.850;25.948;2023-09-19T14:36:30;10.18;;;3.55;;
71343;SDS011;59146;43.850;25.948;2023-09-19T14:38:57;5.38;;;3.00;;
71343;SDS011;59146;43.850;25.948;2023-09-19T14:41:23;8.63;;;3.33;;
71343;SDS011;59146;43.850;25.948;2023-09-19T14:43:50;6.38;;;2.70;;
71343;SDS011;59146;43.850;25.948;2023-09-19T14:46:17;7.95;;;3.13;;
71343;SDS011;59146;43.850;25.948;2023-09-19T14:48:43;9.77;;;3.58;;
71343;SDS011;59146;43.850;25.948;2023-09-19T14:51:09;9.02;;;3.15;;
71343;SDS011;59146;43.850;25.948;2023-09-19T14:53:35;11.02;;;3.58;;
71343;SDS011;59146;43.850;25.948;2023-09-19T14:56:03;13.38;;;3.97;;
71343;SDS011;59146;43.850;25.948;2023-09-19T14:58:29;11.90;;;4.72;;
71343;SDS011;59146;43.850;25.948;2023-09-19T15:01:05;9.57;;;3.15;;
71343;SDS011;59146;43.850;25.948;2023-09-19T15:03:32;7.32;;;2.83;;
71343;SDS011;59146;43.850;25.948;2023-09-19T15:06:02;15.57;;;3.28;;
71343;SDS011;59146;43.850;25.948;2023-09-19T15:08:34;7.65;;;3.00;;
71343;SDS011;59146;43.850;25.948;2023-09-19T15:11:20;5.75;;;3.42;;
71343;SDS011;59146;43.850;25.948;2023-09-19T15:13:46;7.72;;;2.92;;
71343;SDS011;59146;43.850;25.948;2023-09-19T15:16:13;10.35;;;3.53;;
71343;SDS011;59146;43.850;25.948;2023-09-19T15:18:40;15.40;;;4.63;;
71343;SDS011;59146;43.850;25.948;2023-09-19T15:21:07;9.10;;;3.72;;
71343;SDS011;59146;43.850;25.948;2023-09-19T15:23:34;13.68;;;3.75;;
71343;SDS011;59146;43.850;25.948;2023-09-19T15:26:01;18.13;;;4.25;;
71343;SDS011;59146;43.850;25.948;2023-09-19T15:28:28;11.82;;;4.47;;
71343;SDS011;59146;43.850;25.948;2023-09-19T15:31:01;9.27;;;3.33;;